• Join FlightAware (Why Join?)
  • Login
  • US Flag 
07:18AM EDT


 

Airport Tracker/Info


-or-


 

Live Flight TrackerFlight Track Log ✈ CSN6406 ✈ 31-Jul-2013 ✈ ZYTL / DLC - ZSQD / TAO

Flight Track Log - Related Links

Times and Time Zones

All times are in EDT time to prevent confusion due to time zone crossing. See the CSN6406 flight status page for this flight to view local times or setup timezone preferences in your user account.

Time Position Orientation Groundspeed Altitude Reporting Facility
EDT Latitude Longitude Course Direction KTS MPH feet Rate Location/Type
07:21AM 38.8312 121.4784 199° South  Level Estimated
07:22AM 38.6967 121.4185 199° South  Level Estimated
07:23AM 38.5621 121.3588 199° South  Level Estimated
07:24AM 38.4275 121.2993 199° South  Level Estimated
07:25AM 38.2929 121.2400 199° South  Level Estimated
07:26AM 38.1583 121.1809 199° South  Level Estimated
07:27AM 38.0236 121.1221 199° South  Level Estimated
07:28AM 37.8889 121.0635 199° South  Level Estimated
07:29AM 37.7542 121.0051 199° South  Level Estimated
07:30AM 37.6194 120.9469 199° South  Level Estimated
07:31AM 37.4846 120.8889 199° South  Level Estimated
07:32AM 37.3498 120.8311 199° South  Level Estimated
07:33AM 37.2150 120.7735 199° South  Level Estimated
07:34AM 37.0801 120.7161 199° South  Level Estimated
07:35AM 36.9452 120.6590 199° South  Level Estimated
07:36AM 36.8103 120.6020 199° South  Level Estimated
07:37AM 36.6754 120.5453 199° South  Level Estimated
07:38AM 36.5982 120.5129 199° South  Level Estimated
07:39AM 36.5211 120.4807 199° South  Level Estimated
07:40AM 36.4439 120.4484 199° South  Level Estimated
07:41AM 36.3668 120.4163 199° South  Level Estimated
07:42AM 36.2896 120.3842 199° South  Level Estimated
07:43AM 36.2661 120.3744 199° South  Level Estimated
07:44AM 36.2661 120.3744 238° Southwest  Level Estimated
07:45AM 36.2661 120.3744 238° Southwest  Level Estimated
07:46AM 36.2661 120.3744 238° Southwest  Level Estimated
07:47AM 36.2661 120.3744 238° Southwest  Level Estimated
07:48AM 36.2661 120.3744 238° Southwest  Level Estimated
07:49AM 36.2661 120.3744 238° Southwest  Level Estimated
07:50AM 36.2661 120.3744 238° Southwest  Level Estimated